createdAt,value
2019-02-11T00:00:53.581Z,85.08
2019-02-11T00:03:23.085Z,85.13
2019-02-11T00:05:52.287Z,85.22
2019-02-11T00:08:21.533Z,85.23
2019-02-11T00:10:50.975Z,85.23
2019-02-11T00:13:20.510Z,85.34
2019-02-11T00:15:49.722Z,85.33
2019-02-11T00:18:19.179Z,85.31
2019-02-11T00:20:48.369Z,85.32
2019-02-11T00:23:17.624Z,85.46
2019-02-11T00:25:46.905Z,85.54
2019-02-11T00:28:16.186Z,85.62
2019-02-11T00:30:45.420Z,85.62
2019-02-11T00:33:16.108Z,85.67
2019-02-11T00:35:45.485Z,85.72
2019-02-11T00:38:14.735Z,85.72
2019-02-11T00:40:44.191Z,85.79
2019-02-11T00:43:18.949Z,85.82
2019-02-11T00:45:44.368Z,85.84
2019-02-11T00:48:13.848Z,85.91
2019-02-11T00:50:43.275Z,85.88
2019-02-11T00:53:12.545Z,85.92
2019-02-11T00:55:41.760Z,85.90
2019-02-11T00:58:11.042Z,85.82
2019-02-11T01:00:41.245Z,85.78
2019-02-11T01:03:10.441Z,85.82
2019-02-11T01:05:39.874Z,85.77
2019-02-11T01:08:09.565Z,85.75
2019-02-11T01:10:38.835Z,85.77
2019-02-11T01:13:08.098Z,85.76
2019-02-11T01:15:37.415Z,85.81
2019-02-11T01:18:06.598Z,85.79
2019-02-11T01:20:36.078Z,85.78
2019-02-11T01:23:05.338Z,85.84
2019-02-11T01:25:34.527Z,85.87
2019-02-11T01:28:04.082Z,85.84
2019-02-11T01:30:33.319Z,85.95
2019-02-11T01:33:02.518Z,85.96
2019-02-11T01:35:31.817Z,85.99
2019-02-11T01:38:01.073Z,86.00
2019-02-11T01:40:30.352Z,86.05
2019-02-11T01:42:59.886Z,86.02
2019-02-11T01:45:31.278Z,86.17
2019-02-11T01:48:00.982Z,86.17
2019-02-11T01:50:30.175Z,86.16
2019-02-11T01:53:00.434Z,86.17
2019-02-11T01:55:29.867Z,86.25
2019-02-11T01:57:59.059Z,86.18
2019-02-11T02:00:28.601Z,86.24
2019-02-11T02:02:58.120Z,86.19
2019-02-11T02:05:27.744Z,86.27
2019-02-11T02:07:57.177Z,86.30
2019-02-11T02:10:26.382Z,86.35
2019-02-11T02:12:55.606Z,86.36
2019-02-11T02:15:24.919Z,86.36
2019-02-11T02:17:54.127Z,86.37
2019-02-11T02:20:23.332Z,86.35
2019-02-11T02:22:52.809Z,86.28
2019-02-11T02:25:22.002Z,86.29
2019-02-11T02:27:51.205Z,86.28
2019-02-11T02:30:20.678Z,86.33
2019-02-11T02:32:49.852Z,86.43
2019-02-11T02:35:19.052Z,86.38
2019-02-11T02:37:48.406Z,86.37
2019-02-11T02:40:17.602Z,86.35
2019-02-11T02:42:46.787Z,86.39
2019-02-11T02:45:16.477Z,86.41
2019-02-11T02:47:45.726Z,86.43
2019-02-11T02:50:15.300Z,86.45
2019-02-11T02:52:44.987Z,86.48
2019-02-11T02:55:14.303Z,86.51
2019-02-11T02:57:44.715Z,86.53
2019-02-11T03:00:14.332Z,86.56
2019-02-11T03:02:43.607Z,86.56
2019-02-11T03:05:12.800Z,86.54
2019-02-11T03:07:42.427Z,86.54
2019-02-11T03:10:11.760Z,86.60
2019-02-11T03:12:40.950Z,86.46
2019-02-11T03:15:10.431Z,86.47
2019-02-11T03:17:40.793Z,86.56
2019-02-11T03:20:10.517Z,86.55
2019-02-11T03:22:40.085Z,86.51
2019-02-11T03:25:09.386Z,86.58
2019-02-11T03:27:38.587Z,86.60
2019-02-11T03:30:08.276Z,86.69
2019-02-11T03:32:37.462Z,86.66
2019-02-11T03:35:06.658Z,86.62
2019-02-11T03:37:35.991Z,86.58
2019-02-11T03:40:05.879Z,86.56
2019-02-11T03:42:35.440Z,86.63
2019-02-11T03:45:05.759Z,86.70
2019-02-11T03:47:35.153Z,86.74
2019-02-11T03:50:04.724Z,86.75
2019-02-11T03:52:34.078Z,86.73
2019-02-11T03:55:05.891Z,86.67
2019-02-11T03:57:35.278Z,86.64
2019-02-11T04:00:05.290Z,86.68
2019-02-11T04:02:34.468Z,86.67
2019-02-11T04:05:03.910Z,86.75
2019-02-11T04:07:33.471Z,86.66
2019-02-11T04:10:02.682Z,86.71
2019-02-11T04:12:32.251Z,86.74
2019-02-11T04:15:01.487Z,86.69
2019-02-11T04:17:30.711Z,86.67
2019-02-11T04:20:00.390Z,86.63
2019-02-11T04:22:29.666Z,86.67
2019-02-11T04:24:58.910Z,86.66
2019-02-11T04:27:28.199Z,86.68
2019-02-11T04:29:58.471Z,86.67
2019-02-11T04:32:27.664Z,86.64
2019-02-11T04:34:56.981Z,86.54
2019-02-11T04:37:26.251Z,86.60
2019-02-11T04:39:55.514Z,86.61
2019-02-11T04:42:24.938Z,86.63
2019-02-11T04:44:54.207Z,86.68
2019-02-11T04:47:23.430Z,86.68
2019-02-11T04:49:52.854Z,86.66
2019-02-11T04:52:22.102Z,86.70
2019-02-11T04:54:51.341Z,86.73
2019-02-11T04:57:20.732Z,86.72
2019-02-11T04:59:49.969Z,86.76
2019-02-11T05:02:19.154Z,86.83
2019-02-11T05:04:48.453Z,86.83
2019-02-11T05:07:17.680Z,86.82
2019-02-11T05:09:46.932Z,86.84
2019-02-11T05:12:16.322Z,86.80
2019-02-11T05:14:45.890Z,86.79
2019-02-11T05:17:15.089Z,86.81
2019-02-11T05:19:44.528Z,86.78
2019-02-11T05:22:14.152Z,86.73
2019-02-11T05:24:43.360Z,86.73
2019-02-11T05:27:15.096Z,86.74
2019-02-11T05:29:46.433Z,86.71
2019-02-11T05:32:15.586Z,86.72
2019-02-11T05:34:44.887Z,86.72
2019-02-11T05:37:16.590Z,86.66
2019-02-11T05:39:45.996Z,86.69
2019-02-11T05:42:15.475Z,86.62
2019-02-11T05:44:53.761Z,86.58
2019-02-11T05:47:15.770Z,86.56
2019-02-11T05:49:45.254Z,86.56
2019-02-11T05:52:14.930Z,86.56
2019-02-11T05:54:46.710Z,86.56
2019-02-11T05:57:15.896Z,86.59
2019-02-11T05:59:45.239Z,86.59
2019-02-11T06:02:16.143Z,86.56
2019-02-11T06:04:45.352Z,86.56
2019-02-11T06:07:14.578Z,86.62
2019-02-11T06:09:44.053Z,86.56
2019-02-11T06:12:13.251Z,86.58
2019-02-11T06:14:42.680Z,86.57
2019-02-11T06:17:12.146Z,86.60
2019-02-11T06:19:41.369Z,86.61
2019-02-11T06:22:11.894Z,86.55
2019-02-11T06:24:41.219Z,86.55
2019-02-11T06:27:10.868Z,86.54
2019-02-11T06:29:40.400Z,86.53
2019-02-11T06:32:09.589Z,86.57
2019-02-11T06:34:38.784Z,86.61
2019-02-11T06:37:08.496Z,86.63
2019-02-11T06:39:37.997Z,86.60
2019-02-11T06:42:07.259Z,86.56
2019-02-11T06:44:36.639Z,86.53
2019-02-11T06:47:05.827Z,86.54
2019-02-11T06:49:35.033Z,86.44
2019-02-11T06:52:04.391Z,86.60
2019-02-11T06:54:33.671Z,86.58
2019-02-11T06:57:05.382Z,86.62
2019-02-11T06:59:34.646Z,86.62
2019-02-11T07:02:03.878Z,86.67
2019-02-11T07:04:33.274Z,86.52
2019-02-11T07:07:02.496Z,86.65
2019-02-11T07:09:31.744Z,86.68
2019-02-11T07:12:01.131Z,86.66
2019-02-11T07:14:30.422Z,86.66
2019-02-11T07:16:59.609Z,86.65
2019-02-11T07:19:29.057Z,86.63
2019-02-11T07:21:59.347Z,86.61
2019-02-11T07:24:28.537Z,86.60
2019-02-11T07:26:57.894Z,86.59
2019-02-11T07:29:27.157Z,86.57
2019-02-11T07:31:56.372Z,86.56
2019-02-11T07:34:26.282Z,86.55
2019-02-11T07:36:55.557Z,86.57
2019-02-11T07:39:26.224Z,86.51
2019-02-11T07:42:26.759Z,86.48
2019-02-11T07:44:58.419Z,86.44
2019-02-11T07:47:27.731Z,86.32
2019-02-11T07:49:57.209Z,86.37
2019-02-11T07:52:27.216Z,86.33
2019-02-11T07:54:56.959Z,86.32
2019-02-11T07:57:26.850Z,86.22
2019-02-11T07:59:57.303Z,86.23
2019-02-11T08:02:26.646Z,86.23
2019-02-11T08:04:56.026Z,86.21
2019-02-11T08:07:25.269Z,86.19
2019-02-11T08:09:55.034Z,86.17
2019-02-11T08:12:24.591Z,86.13
2019-02-11T08:14:53.778Z,86.13
2019-02-11T08:17:22.966Z,86.13
2019-02-11T08:19:52.694Z,86.08
2019-02-11T08:22:21.876Z,86.09
2019-02-11T08:24:51.061Z,86.12
2019-02-11T08:27:20.470Z,86.06
2019-02-11T08:29:49.664Z,86.12
2019-02-11T08:32:21.146Z,86.15
2019-02-11T08:34:50.385Z,86.09
2019-02-11T08:37:19.642Z,86.05
2019-02-11T08:39:48.961Z,86.04
2019-02-11T08:42:18.176Z,86.00
2019-02-11T08:44:47.398Z,86.07
2019-02-11T08:47:16.843Z,86.02
2019-02-11T08:49:46.165Z,86.04
2019-02-11T08:52:15.344Z,85.94
2019-02-11T08:54:45.418Z,85.98
2019-02-11T08:57:14.746Z,86.00
2019-02-11T08:59:43.952Z,86.00
2019-02-11T09:02:13.357Z,85.93
2019-02-11T09:04:42.620Z,85.88
2019-02-11T09:07:11.802Z,85.89
2019-02-11T09:09:41.248Z,85.80
2019-02-11T09:12:10.517Z,85.74
2019-02-11T09:14:39.673Z,85.72
2019-02-11T09:17:10.506Z,85.73
2019-02-11T09:19:39.961Z,85.68
2019-02-11T09:22:09.212Z,85.71
2019-02-11T09:24:38.796Z,85.71
2019-02-11T09:27:08.058Z,85.56
2019-02-11T09:29:37.250Z,85.43
2019-02-11T09:32:06.824Z,85.38
2019-02-11T09:34:36.055Z,85.39
2019-02-11T09:37:05.317Z,85.28
2019-02-11T09:39:34.629Z,85.16
2019-02-11T09:42:03.886Z,85.16
2019-02-11T09:44:33.322Z,85.02
2019-02-11T09:47:02.810Z,84.95
2019-02-11T09:49:32.065Z,84.90
2019-02-11T09:52:01.308Z,84.79
2019-02-11T09:54:30.710Z,84.79
2019-02-11T09:56:59.951Z,84.72
2019-02-11T09:59:29.283Z,84.67
2019-02-11T10:01:59.211Z,84.55
2019-02-11T10:04:28.749Z,84.58
2019-02-11T10:06:57.935Z,84.54
2019-02-11T10:09:27.317Z,84.44
2019-02-11T10:11:56.546Z,84.33
2019-02-11T10:14:25.761Z,84.30
2019-02-11T10:16:55.161Z,84.21
2019-02-11T10:19:24.417Z,84.12
2019-02-11T10:21:53.589Z,84.07
2019-02-11T10:24:22.985Z,84.01
2019-02-11T10:26:52.204Z,84.02
2019-02-11T10:29:21.511Z,83.92
2019-02-11T10:31:51.009Z,83.82
2019-02-11T10:34:20.376Z,83.80
2019-02-11T10:36:49.590Z,83.68
2019-02-11T10:39:19.020Z,83.52
2019-02-11T10:41:48.246Z,83.64
2019-02-11T10:44:17.436Z,83.40
2019-02-11T10:46:46.715Z,83.24
2019-02-11T10:49:15.984Z,83.10
2019-02-11T10:51:45.156Z,82.79
2019-02-11T10:54:14.490Z,82.49
2019-02-11T10:56:44.750Z,82.21
2019-02-11T10:59:13.934Z,82.07
2019-02-11T11:01:43.542Z,81.65
2019-02-11T11:04:12.812Z,81.58
2019-02-11T11:06:42.012Z,81.48
2019-02-11T11:09:15.225Z,81.22
2019-02-11T11:11:44.520Z,81.04
2019-02-11T11:14:13.749Z,80.84
2019-02-11T11:16:43.243Z,80.89
2019-02-11T11:19:12.518Z,81.10
2019-02-11T11:21:41.727Z,81.47
2019-02-11T11:24:11.096Z,81.92
2019-02-11T11:26:40.430Z,81.75
2019-02-11T11:29:09.618Z,80.97
2019-02-11T11:31:39.636Z,80.76
2019-02-11T11:34:08.896Z,80.14
2019-02-11T11:36:38.169Z,78.85
2019-02-11T11:39:17.163Z,77.55
2019-02-11T11:41:46.348Z,76.72
2019-02-11T11:44:15.613Z,75.92
2019-02-11T11:46:47.151Z,75.23
2019-02-11T11:49:16.603Z,74.65
2019-02-11T11:51:46.014Z,74.11
2019-02-11T11:54:15.350Z,73.88
2019-02-11T11:56:44.598Z,73.81
2019-02-11T11:59:14.027Z,73.81
2019-02-11T12:01:43.273Z,73.66
2019-02-11T12:04:12.557Z,73.47
2019-02-11T12:06:42.143Z,73.51
2019-02-11T12:09:11.409Z,73.61
2019-02-11T12:11:41.281Z,73.73
2019-02-11T12:14:10.652Z,73.71
2019-02-11T12:16:55.390Z,73.39
2019-02-11T12:19:13.139Z,73.14
2019-02-11T12:21:42.996Z,72.83
2019-02-11T12:24:12.206Z,72.06
2019-02-11T12:26:41.647Z,71.52
2019-02-11T12:29:10.792Z,70.70
2019-02-11T12:31:40.057Z,70.19
2019-02-11T12:34:09.384Z,69.85
2019-02-11T12:36:38.658Z,69.79
2019-02-11T12:39:07.998Z,69.27
2019-02-11T12:41:37.445Z,68.39
2019-02-11T12:44:06.639Z,68.29
2019-02-11T12:46:35.868Z,68.27
2019-02-11T12:49:05.455Z,67.94
2019-02-11T12:51:34.635Z,67.65
2019-02-11T12:54:03.884Z,67.12
2019-02-11T12:56:33.233Z,66.50
2019-02-11T12:59:02.400Z,66.26
2019-02-11T13:01:31.688Z,65.98
2019-02-11T13:04:01.146Z,65.89
2019-02-11T13:06:31.039Z,65.89
2019-02-11T13:09:00.787Z,65.44
2019-02-11T13:11:31.433Z,65.06
2019-02-11T13:14:08.575Z,64.73
2019-02-11T13:16:41.522Z,64.32
2019-02-11T13:19:10.797Z,64.03
2019-02-11T13:21:40.283Z,63.99
2019-02-11T13:24:10.009Z,63.45
2019-02-11T13:26:47.253Z,63.08
2019-02-11T13:29:22.829Z,62.49
2019-02-11T13:31:52.185Z,61.97
2019-02-11T13:34:23.186Z,61.93
2019-02-11T13:36:52.545Z,61.69
2019-02-11T13:39:21.862Z,61.95
2019-02-11T13:41:51.553Z,61.68
2019-02-11T13:44:20.845Z,61.57
2019-02-11T13:46:50.163Z,62.12
2019-02-11T13:49:21.819Z,62.71
2019-02-11T13:51:53.247Z,63.33
2019-02-11T13:54:24.286Z,63.80
2019-02-11T13:56:56.915Z,64.31
2019-02-11T13:59:28.092Z,64.68
2019-02-11T14:01:58.706Z,64.89
2019-02-11T14:04:30.860Z,65.18
2019-02-11T14:07:02.258Z,65.42
2019-02-11T14:09:33.628Z,65.67
2019-02-11T14:12:03.089Z,65.78
2019-02-11T14:14:34.191Z,65.88
2019-02-11T14:17:03.601Z,66.07
2019-02-11T14:19:33.150Z,66.30
2019-02-11T14:22:02.601Z,66.60
2019-02-11T14:24:32.025Z,66.78
2019-02-11T14:27:01.500Z,66.87
2019-02-11T14:29:31.851Z,66.95
2019-02-11T14:32:01.697Z,67.00
2019-02-11T14:34:30.894Z,67.12
2019-02-11T14:37:02.077Z,67.02
2019-02-11T14:39:32.623Z,67.20
2019-02-11T14:42:03.634Z,67.35
2019-02-11T14:44:33.061Z,67.49
2019-02-11T14:47:02.601Z,67.63
2019-02-11T14:49:32.376Z,67.65
2019-02-11T14:52:01.983Z,67.78
2019-02-11T14:54:31.835Z,67.92
2019-02-11T14:57:01.262Z,68.02
2019-02-11T14:59:30.423Z,68.05
2019-02-11T15:01:59.634Z,68.21
2019-02-11T15:04:29.008Z,68.41
2019-02-11T15:06:58.298Z,68.48
2019-02-11T15:09:27.589Z,68.53
2019-02-11T15:11:57.257Z,68.61
2019-02-11T15:14:26.428Z,68.69
2019-02-11T15:16:55.638Z,68.70
2019-02-11T15:19:24.966Z,68.81
2019-02-11T15:21:54.123Z,68.95
2019-02-11T15:24:23.429Z,69.06
2019-02-11T15:26:53.280Z,69.27
2019-02-11T15:29:22.632Z,69.42
2019-02-11T15:31:54.032Z,69.49
2019-02-11T15:34:23.238Z,69.61
2019-02-11T15:36:52.433Z,69.73
2019-02-11T15:39:21.934Z,69.83
2019-02-11T15:41:51.119Z,69.91
2019-02-11T15:44:20.315Z,69.98
2019-02-11T15:46:49.655Z,70.03
2019-02-11T15:49:18.847Z,70.17
2019-02-11T15:51:48.032Z,70.26
2019-02-11T15:54:17.529Z,70.33
2019-02-11T15:56:46.750Z,70.40
2019-02-11T15:59:15.945Z,70.49
2019-02-11T16:01:45.845Z,70.51
2019-02-11T16:04:15.040Z,70.43
2019-02-11T16:06:44.273Z,70.65
2019-02-11T16:09:14.048Z,70.72
2019-02-11T16:11:43.374Z,70.83
2019-02-11T16:14:12.549Z,70.91
2019-02-11T16:16:42.054Z,71.02
2019-02-11T16:19:12.339Z,71.14
2019-02-11T16:21:41.816Z,71.25
2019-02-11T16:24:11.275Z,71.33
2019-02-11T16:26:40.553Z,71.35
2019-02-11T16:29:09.768Z,71.45
2019-02-11T16:31:39.388Z,71.55
2019-02-11T16:34:08.581Z,71.57
2019-02-11T16:36:37.753Z,71.70
2019-02-11T16:39:08.021Z,71.82
2019-02-11T16:41:37.223Z,71.89
2019-02-11T16:44:06.447Z,72.06
2019-02-11T16:46:35.845Z,72.14
2019-02-11T16:49:05.048Z,72.19
2019-02-11T16:51:34.297Z,72.21
2019-02-11T16:54:05.496Z,72.26
2019-02-11T16:56:34.509Z,72.36
2019-02-11T16:59:03.707Z,72.43
2019-02-11T17:01:34.466Z,72.45
2019-02-11T17:04:03.671Z,72.47
2019-02-11T17:06:32.998Z,72.49
2019-02-11T17:09:02.577Z,72.51
2019-02-11T17:11:31.909Z,72.64
2019-02-11T17:14:01.229Z,72.69
2019-02-11T17:16:30.672Z,72.77
2019-02-11T17:19:00.122Z,72.80
2019-02-11T17:21:29.490Z,72.89
2019-02-11T17:23:59.042Z,72.91
2019-02-11T17:26:28.275Z,72.94
2019-02-11T17:28:57.464Z,72.98
2019-02-11T17:31:26.948Z,73.03
2019-02-11T17:33:56.127Z,73.11
2019-02-11T17:36:25.367Z,73.21
2019-02-11T17:38:54.782Z,73.19
2019-02-11T17:41:23.977Z,73.23
2019-02-11T17:43:53.172Z,73.29
2019-02-11T17:46:22.514Z,73.37
2019-02-11T17:48:51.704Z,73.40
2019-02-11T17:51:20.974Z,73.43
2019-02-11T17:53:50.379Z,73.46
2019-02-11T17:56:20.004Z,73.54
2019-02-11T17:58:49.188Z,73.57
2019-02-11T18:01:18.894Z,73.61
2019-02-11T18:03:48.557Z,73.54
2019-02-11T18:06:17.775Z,73.64
2019-02-11T18:08:47.301Z,73.72
2019-02-11T18:11:16.806Z,73.75
2019-02-11T18:13:46.905Z,73.75
2019-02-11T18:16:16.537Z,73.76
2019-02-11T18:18:45.734Z,73.73
2019-02-11T18:21:14.923Z,73.82
2019-02-11T18:23:44.326Z,73.83
2019-02-11T18:26:13.536Z,73.85
2019-02-11T18:28:42.821Z,73.89
2019-02-11T18:31:12.540Z,73.94
2019-02-11T18:33:41.992Z,74.03
2019-02-11T18:36:11.214Z,74.04
2019-02-11T18:38:40.641Z,74.10
2019-02-11T18:41:09.934Z,74.11
2019-02-11T18:43:39.126Z,74.12
2019-02-11T18:46:08.643Z,74.16
2019-02-11T18:48:37.860Z,74.28
2019-02-11T18:51:08.725Z,74.37
2019-02-11T18:53:38.179Z,74.42
2019-02-11T18:56:07.407Z,74.49
2019-02-11T18:58:36.629Z,74.51
2019-02-11T19:01:06.179Z,74.58
2019-02-11T19:03:35.295Z,74.56
2019-02-11T19:06:04.503Z,74.53
2019-02-11T19:08:34.195Z,74.58
2019-02-11T19:11:03.468Z,74.62
2019-02-11T19:13:32.687Z,74.65
2019-02-11T19:16:02.092Z,74.73
2019-02-11T19:18:31.443Z,74.78
2019-02-11T19:21:00.643Z,74.82
2019-02-11T19:23:29.966Z,74.83
2019-02-11T19:25:59.290Z,74.88
2019-02-11T19:28:28.586Z,74.89
2019-02-11T19:30:57.919Z,74.91
2019-02-11T19:33:27.118Z,74.88
2019-02-11T19:35:56.309Z,74.91
2019-02-11T19:38:25.783Z,74.89
2019-02-11T19:40:54.981Z,74.97
2019-02-11T19:43:24.162Z,74.98
2019-02-11T19:45:53.497Z,74.99
2019-02-11T19:48:22.686Z,75.03
2019-02-11T19:50:52.012Z,75.03
2019-02-11T19:53:21.480Z,74.97
2019-02-11T19:55:50.660Z,74.99
2019-02-11T19:58:19.856Z,75.07
2019-02-11T20:00:49.207Z,75.04
2019-02-11T20:03:18.415Z,75.08
2019-02-11T20:05:47.669Z,75.11
2019-02-11T20:08:17.166Z,75.18
2019-02-11T20:10:46.354Z,75.08
2019-02-11T20:13:15.539Z,75.07
2019-02-11T20:15:45.062Z,75.13
2019-02-11T20:18:14.351Z,75.19
2019-02-11T20:20:43.818Z,75.12
2019-02-11T20:23:13.211Z,75.17
2019-02-11T20:25:42.478Z,75.16
2019-02-11T20:28:12.157Z,75.14
2019-02-11T20:30:41.563Z,75.13
2019-02-11T20:33:10.885Z,75.18
2019-02-11T20:35:40.086Z,75.13
2019-02-11T20:38:09.422Z,75.14
2019-02-11T20:40:38.610Z,75.14
2019-02-11T20:43:07.804Z,75.08
2019-02-11T20:45:37.124Z,75.05
2019-02-11T20:48:06.311Z,75.11
2019-02-11T20:50:35.515Z,75.09
2019-02-11T20:53:05.097Z,75.14
2019-02-11T20:55:34.287Z,75.18
2019-02-11T20:58:03.573Z,75.22
2019-02-11T21:00:33.096Z,75.18
2019-02-11T21:03:08.151Z,75.15
2019-02-11T21:05:33.191Z,75.13
2019-02-11T21:08:02.575Z,75.10
2019-02-11T21:10:31.769Z,75.05
2019-02-11T21:13:01.296Z,74.98
2019-02-11T21:15:30.624Z,75.01
2019-02-11T21:17:59.813Z,74.98
2019-02-11T21:20:31.901Z,74.98
2019-02-11T21:23:01.237Z,75.03
2019-02-11T21:25:30.479Z,75.09
2019-02-11T21:27:59.892Z,75.10
2019-02-11T21:30:29.205Z,75.12
2019-02-11T21:32:58.391Z,75.12
2019-02-11T21:35:27.676Z,75.16
2019-02-11T21:37:56.946Z,75.20
2019-02-11T21:40:26.156Z,75.17
2019-02-11T21:42:55.600Z,75.19
2019-02-11T21:45:24.923Z,75.12
2019-02-11T21:47:54.104Z,75.05
2019-02-11T21:50:26.841Z,75.02
2019-02-11T21:52:54.460Z,75.06
2019-02-11T21:55:23.680Z,75.11
2019-02-11T21:57:54.364Z,75.13
2019-02-11T22:00:23.684Z,75.14
2019-02-11T22:02:52.867Z,75.16
2019-02-11T22:05:22.254Z,75.11
2019-02-11T22:07:51.512Z,75.05
2019-02-11T22:10:20.801Z,75.07
2019-02-11T22:12:50.111Z,75.00
2019-02-11T22:15:19.355Z,75.01
2019-02-11T22:17:48.541Z,75.01
2019-02-11T22:20:18.567Z,74.91
2019-02-11T22:22:47.903Z,74.91
2019-02-11T22:25:17.255Z,74.83
2019-02-11T22:27:49.434Z,74.81
2019-02-11T22:30:19.925Z,74.80
2019-02-11T22:32:49.178Z,74.84
2019-02-11T22:35:18.443Z,74.85
2019-02-11T22:37:48.256Z,74.80
2019-02-11T22:40:17.479Z,74.84
2019-02-11T22:42:46.742Z,74.85
2019-02-11T22:45:21.980Z,74.78
2019-02-11T22:47:51.278Z,74.77
2019-02-11T22:50:20.472Z,74.72
2019-02-11T22:52:49.694Z,74.72
2019-02-11T22:55:19.117Z,74.69
2019-02-11T22:57:48.585Z,74.67
2019-02-11T23:00:49.806Z,74.69
2019-02-11T23:03:19.007Z,74.72
2019-02-11T23:05:48.195Z,74.71
2019-02-11T23:08:17.615Z,74.66
2019-02-11T23:10:46.993Z,74.67
2019-02-11T23:13:16.182Z,74.70
2019-02-11T23:15:45.674Z,74.63
2019-02-11T23:18:14.867Z,74.63
2019-02-11T23:20:51.688Z,74.69
2019-02-11T23:23:15.118Z,74.67
2019-02-11T23:25:44.410Z,74.64
2019-02-11T23:28:13.812Z,74.65
2019-02-11T23:30:43.507Z,74.56
2019-02-11T23:33:12.699Z,74.59
2019-02-11T23:35:41.897Z,74.63
2019-02-11T23:38:11.212Z,74.60
2019-02-11T23:40:40.409Z,74.52
2019-02-11T23:43:09.593Z,74.50
2019-02-11T23:45:38.899Z,74.51
2019-02-11T23:48:08.093Z,74.46
2019-02-11T23:50:37.274Z,74.47
2019-02-11T23:53:06.594Z,74.44
2019-02-11T23:55:35.789Z,74.42
2019-02-11T23:58:05.363Z,74.35
